createdAt,value
2022-07-25T00:02:04.602Z,18.60
2022-07-25T00:04:34.375Z,21.80
2022-07-25T00:07:04.851Z,17.00
2022-07-25T00:09:32.170Z,17.20
2022-07-25T00:11:59.299Z,18.80
2022-07-25T00:14:26.722Z,22.20
2022-07-25T00:16:53.720Z,18.20
2022-07-25T00:19:22.943Z,20.80
2022-07-25T00:21:50.101Z,20.40
2022-07-25T00:24:20.214Z,16.80
2022-07-25T00:26:47.108Z,15.00
2022-07-25T00:29:14.184Z,16.80
2022-07-25T00:31:43.983Z,19.80
2022-07-25T00:34:11.252Z,17.20
2022-07-25T00:36:38.518Z,15.20
2022-07-25T00:39:05.970Z,18.40
2022-07-25T00:41:37.029Z,16.40
2022-07-25T00:44:05.399Z,15.20
2022-07-25T00:46:33.097Z,17.20
2022-07-25T00:49:00.893Z,15.80
2022-07-25T00:51:28.567Z,16.60
2022-07-25T00:53:57.519Z,17.60
2022-07-25T00:56:25.208Z,20.00
2022-07-25T00:58:54.636Z,19.00
2022-07-25T01:01:22.022Z,18.40
2022-07-25T01:03:50.785Z,17.40
2022-07-25T01:06:18.555Z,18.80
2022-07-25T01:08:47.160Z,16.40
2022-07-25T01:11:14.047Z,18.20
2022-07-25T01:13:41.646Z,19.00
2022-07-25T01:16:12.699Z,18.20
2022-07-25T01:18:40.272Z,13.40
2022-07-25T01:21:09.305Z,15.20
2022-07-25T01:23:37.962Z,14.80
2022-07-25T01:26:05.482Z,19.00
2022-07-25T01:28:35.311Z,18.20
2022-07-25T01:31:04.811Z,15.40
2022-07-25T01:33:31.755Z,18.20
2022-07-25T01:35:59.309Z,14.80
2022-07-25T01:38:27.701Z,15.20
2022-07-25T01:40:54.538Z,17.00
2022-07-25T01:43:21.531Z,15.20
2022-07-25T01:45:48.770Z,12.00
2022-07-25T01:48:15.751Z,18.00
2022-07-25T01:50:45.823Z,16.60
2022-07-25T01:53:12.703Z,18.80
2022-07-25T01:55:41.938Z,16.20
2022-07-25T01:58:09.978Z,17.00
2022-07-25T02:00:37.565Z,17.40
2022-07-25T02:03:06.700Z,18.80
2022-07-25T02:05:33.548Z,17.60
2022-07-25T02:08:00.898Z,16.80
2022-07-25T02:10:28.294Z,21.00
2022-07-25T02:12:56.629Z,21.00
2022-07-25T02:15:23.650Z,16.75
2022-07-25T02:17:50.786Z,18.50
2022-07-25T02:20:17.858Z,14.75
2022-07-25T02:22:44.821Z,19.40
2022-07-25T02:25:11.792Z,21.60
2022-07-25T02:27:38.656Z,21.60
2022-07-25T02:30:08.689Z,18.40
2022-07-25T02:32:36.400Z,17.60
2022-07-25T02:35:04.018Z,16.40
2022-07-25T02:37:40.410Z,14.40
2022-07-25T02:40:09.000Z,17.20
2022-07-25T02:42:38.919Z,17.60
2022-07-25T02:45:09.098Z,12.80
2022-07-25T02:47:36.080Z,16.80
2022-07-25T02:50:06.923Z,18.00
2022-07-25T02:52:36.434Z,16.60
2022-07-25T02:55:09.247Z,15.20
2022-07-25T02:57:37.171Z,20.60
2022-07-25T03:00:08.320Z,16.60
2022-07-25T03:02:35.310Z,15.80
2022-07-25T03:05:02.399Z,20.00
2022-07-25T03:07:29.783Z,21.00
2022-07-25T03:09:56.657Z,17.00
2022-07-25T03:12:23.537Z,20.40
2022-07-25T03:15:20.249Z,18.20
2022-07-25T03:17:47.663Z,17.40
2022-07-25T03:20:14.616Z,21.00
2022-07-25T03:22:42.022Z,17.20
2022-07-25T03:25:15.790Z,19.60
2022-07-25T03:27:57.299Z,17.00
2022-07-25T03:30:25.640Z,20.20
2022-07-25T03:32:52.592Z,17.80
2022-07-25T03:35:19.505Z,18.20
2022-07-25T03:37:52.573Z,16.40
2022-07-25T03:40:20.155Z,17.60
2022-07-25T03:42:47.081Z,17.00
2022-07-25T03:45:17.226Z,20.00
2022-07-25T03:47:51.759Z,17.60
2022-07-25T03:50:19.069Z,16.60
2022-07-25T03:52:46.515Z,20.60
2022-07-25T03:55:13.572Z,20.40
2022-07-25T03:57:40.527Z,19.20
2022-07-25T04:00:10.417Z,20.25
2022-07-25T04:02:38.108Z,19.75
2022-07-25T04:05:09.056Z,20.50
2022-07-25T04:08:05.069Z,18.50
2022-07-25T04:10:48.092Z,23.25
2022-07-25T04:13:15.289Z,18.25
2022-07-25T04:15:42.128Z,20.50
2022-07-25T04:18:09.115Z,17.60
2022-07-25T04:20:41.448Z,18.20
2022-07-25T04:23:08.944Z,19.00
2022-07-25T04:25:35.869Z,18.60
2022-07-25T04:28:03.788Z,18.00
2022-07-25T04:30:33.061Z,18.60
2022-07-25T04:33:01.505Z,17.60
2022-07-25T04:35:28.723Z,17.60
2022-07-25T04:37:57.496Z,17.60
2022-07-25T04:40:24.767Z,21.40
2022-07-25T04:42:52.286Z,19.40
2022-07-25T04:45:19.508Z,17.40
2022-07-25T04:47:47.412Z,14.60
2022-07-25T04:50:15.461Z,17.00
2022-07-25T04:52:42.713Z,13.60
2022-07-25T04:55:11.682Z,15.80
2022-07-25T04:57:38.824Z,16.20
2022-07-25T05:00:09.513Z,14.40
2022-07-25T05:02:37.836Z,17.00
2022-07-25T05:05:06.172Z,17.20
2022-07-25T05:07:33.307Z,15.60
2022-07-25T05:10:00.693Z,15.80
2022-07-25T05:12:29.343Z,18.20
2022-07-25T05:14:56.422Z,12.20
2022-07-25T05:17:25.494Z,18.00
2022-07-25T05:19:52.348Z,19.00
2022-07-25T05:22:19.533Z,15.20
2022-07-25T05:24:46.478Z,15.00
2022-07-25T05:27:13.830Z,17.20
2022-07-25T05:29:42.251Z,17.80
2022-07-25T05:32:09.390Z,14.40
2022-07-25T05:34:36.272Z,15.00
2022-07-25T05:37:03.457Z,16.20
2022-07-25T05:39:30.373Z,12.00
2022-07-25T05:41:57.454Z,16.40
2022-07-25T05:44:24.332Z,13.00
2022-07-25T05:46:52.855Z,17.00
2022-07-25T05:49:19.932Z,15.60
2022-07-25T05:51:46.955Z,17.20
2022-07-25T05:54:13.768Z,18.40
2022-07-25T05:56:41.310Z,15.40
2022-07-25T05:59:08.199Z,18.60
2022-07-25T06:01:35.136Z,17.20
2022-07-25T06:04:07.000Z,15.60
2022-07-25T06:06:34.128Z,13.40
2022-07-25T06:09:01.006Z,13.40
2022-07-25T06:11:27.973Z,15.20
2022-07-25T06:13:58.089Z,14.00
2022-07-25T06:16:25.269Z,10.75
2022-07-25T06:18:52.402Z,14.00
2022-07-25T06:21:20.757Z,15.00
2022-07-25T06:23:47.909Z,13.20
2022-07-25T06:26:14.708Z,12.80
2022-07-25T06:28:41.677Z,13.40
2022-07-25T06:31:08.705Z,13.60
2022-07-25T06:33:35.602Z,13.20
2022-07-25T06:36:04.673Z,14.60
2022-07-25T06:38:32.798Z,15.60
2022-07-25T06:40:59.778Z,17.60
2022-07-25T06:43:26.752Z,13.60
2022-07-25T06:45:54.542Z,14.80
2022-07-25T06:48:21.462Z,17.40
2022-07-25T06:50:48.326Z,15.00
2022-07-25T06:53:15.091Z,13.40
2022-07-25T06:55:43.387Z,15.00
2022-07-25T06:58:10.458Z,16.40
2022-07-25T07:00:38.051Z,10.60
2022-07-25T07:03:05.370Z,17.00
2022-07-25T07:05:35.423Z,14.20
2022-07-25T07:08:03.528Z,16.60
2022-07-25T07:10:31.292Z,17.40
2022-07-25T07:13:11.358Z,15.80
2022-07-25T07:15:39.730Z,18.60
2022-07-25T07:18:07.371Z,14.20
2022-07-25T07:20:34.565Z,17.60
2022-07-25T07:23:01.589Z,13.20
2022-07-25T07:25:28.646Z,16.00
2022-07-25T07:27:56.372Z,14.40
2022-07-25T07:30:37.642Z,15.60
2022-07-25T07:33:11.665Z,17.00
2022-07-25T07:35:38.578Z,17.60
2022-07-25T07:38:06.062Z,16.80
2022-07-25T07:40:32.883Z,16.80
2022-07-25T07:42:59.836Z,17.20
2022-07-25T07:45:28.547Z,16.80
2022-07-25T07:47:56.714Z,18.40
2022-07-25T07:50:27.061Z,15.40
2022-07-25T07:52:55.937Z,16.00
2022-07-25T07:55:24.629Z,17.80
2022-07-25T07:57:52.035Z,14.20
2022-07-25T08:00:19.866Z,14.80
2022-07-25T08:02:51.709Z,15.20
2022-07-25T08:05:23.665Z,16.60
2022-07-25T08:07:52.340Z,16.00
2022-07-25T08:10:21.768Z,14.60
2022-07-25T08:12:50.389Z,24.60
2022-07-25T08:15:19.083Z,14.40
2022-07-25T08:17:47.918Z,17.00
2022-07-25T08:20:37.024Z,20.00
2022-07-25T08:23:02.259Z,14.20
2022-07-25T08:25:29.730Z,18.40
2022-07-25T08:27:56.708Z,16.00
2022-07-25T08:30:23.836Z,19.40
2022-07-25T08:32:55.095Z,16.20
2022-07-25T08:35:23.745Z,14.60
2022-07-25T08:37:51.635Z,18.40
2022-07-25T08:40:21.672Z,18.40
2022-07-25T08:42:49.715Z,14.00
2022-07-25T08:45:19.255Z,18.00
2022-07-25T08:47:47.923Z,14.80
2022-07-25T08:50:18.861Z,16.80
2022-07-25T08:52:48.037Z,16.80
2022-07-25T08:55:17.919Z,16.80
2022-07-25T08:57:46.778Z,16.80
2022-07-25T09:00:17.929Z,13.80
2022-07-25T09:02:53.303Z,14.60
2022-07-25T09:05:23.919Z,16.20
2022-07-25T09:07:52.770Z,15.40
2022-07-25T09:10:23.258Z,13.40
2022-07-25T09:12:55.969Z,15.00
2022-07-25T09:15:25.639Z,15.00
2022-07-25T09:17:54.356Z,12.20
2022-07-25T09:20:23.625Z,17.00
2022-07-25T09:22:51.260Z,12.00
2022-07-25T09:25:28.087Z,12.00
2022-07-25T09:27:55.166Z,9.40
2022-07-25T09:30:22.762Z,16.80
2022-07-25T09:32:59.678Z,12.60
2022-07-25T09:35:31.979Z,16.20
2022-07-25T09:38:16.976Z,16.80
2022-07-25T09:40:55.837Z,13.40
2022-07-25T09:43:23.712Z,15.00
2022-07-25T09:45:52.069Z,13.80
2022-07-25T09:48:19.983Z,14.80
2022-07-25T09:50:49.359Z,14.60
2022-07-25T09:53:17.563Z,14.20
2022-07-25T09:55:45.291Z,11.00
2022-07-25T09:58:13.678Z,13.60
2022-07-25T10:00:42.437Z,12.60
2022-07-25T10:03:24.128Z,11.20
2022-07-25T10:06:12.951Z,13.20
2022-07-25T10:08:41.721Z,13.40
2022-07-25T10:11:25.235Z,12.00
2022-07-25T10:13:54.754Z,11.40
2022-07-25T10:16:27.550Z,13.20
2022-07-25T10:18:59.727Z,10.80
2022-07-25T10:21:28.992Z,13.40
2022-07-25T10:24:02.566Z,11.00
2022-07-25T10:26:31.229Z,11.20
2022-07-25T10:28:59.759Z,11.00
2022-07-25T10:31:36.574Z,12.40
2022-07-25T10:34:07.507Z,11.80
2022-07-25T10:36:46.426Z,14.40
2022-07-25T10:39:15.808Z,10.00
2022-07-25T10:41:51.157Z,10.20
2022-07-25T10:44:18.314Z,10.20
2022-07-25T10:46:46.131Z,13.20
2022-07-25T10:49:29.121Z,10.80
2022-07-25T10:52:02.015Z,12.00
2022-07-25T10:54:34.870Z,9.60
2022-07-25T10:57:03.059Z,11.00
2022-07-25T10:59:34.126Z,11.25
2022-07-25T11:02:02.333Z,8.25
2022-07-25T11:04:30.372Z,9.00
2022-07-25T11:07:07.951Z,8.50
2022-07-25T11:09:35.075Z,9.75
2022-07-25T11:12:02.058Z,10.00
2022-07-25T11:14:33.779Z,10.50
2022-07-25T11:17:13.719Z,10.25
2022-07-25T11:19:42.216Z,10.75
2022-07-25T11:22:11.044Z,7.75
2022-07-25T11:24:40.957Z,11.00
2022-07-25T11:27:12.170Z,9.75
2022-07-25T11:29:40.622Z,11.75
2022-07-25T11:32:10.499Z,11.25
2022-07-25T11:34:41.135Z,9.75
2022-07-25T11:37:13.131Z,9.75
2022-07-25T11:39:45.281Z,10.00
2022-07-25T11:42:15.317Z,8.75
2022-07-25T11:44:47.891Z,8.50
2022-07-25T11:47:28.132Z,8.40
2022-07-25T11:49:57.450Z,9.60
2022-07-25T11:52:30.674Z,8.00
2022-07-25T11:55:00.426Z,10.60
2022-07-25T11:57:32.862Z,8.20
2022-07-25T12:00:01.084Z,9.60
2022-07-25T12:02:30.092Z,9.80
2022-07-25T12:04:59.772Z,10.00
2022-07-25T12:07:47.416Z,9.20
2022-07-25T12:10:17.783Z,9.00
2022-07-25T12:12:52.001Z,8.20
2022-07-25T12:15:22.580Z,8.40
2022-07-25T12:17:51.321Z,9.60
2022-07-25T12:20:21.678Z,8.80
2022-07-25T12:22:52.831Z,9.20
2022-07-25T12:25:20.474Z,7.40
2022-07-25T12:27:48.483Z,8.40
2022-07-25T12:30:19.949Z,9.60
2022-07-25T12:32:47.469Z,10.00
2022-07-25T12:35:15.129Z,10.00
2022-07-25T12:37:42.563Z,10.60
2022-07-25T12:40:13.699Z,8.60
2022-07-25T12:42:40.992Z,11.20
2022-07-25T12:45:10.011Z,11.40
2022-07-25T12:47:37.532Z,11.80
2022-07-25T12:50:06.465Z,10.00
2022-07-25T12:52:33.975Z,8.60
2022-07-25T12:55:20.821Z,10.80
2022-07-25T12:57:48.480Z,6.00
2022-07-25T13:00:19.541Z,8.80
2022-07-25T13:03:23.781Z,9.20
2022-07-25T13:05:56.603Z,11.20
2022-07-25T13:08:49.565Z,9.80
2022-07-25T13:11:18.200Z,11.40
2022-07-25T13:13:45.018Z,11.60
2022-07-25T13:16:11.969Z,11.40
2022-07-25T13:18:39.157Z,9.00
2022-07-25T13:21:07.081Z,11.00
2022-07-25T13:23:34.546Z,11.00
2022-07-25T13:26:01.647Z,13.00
2022-07-25T13:28:30.335Z,11.00
2022-07-25T13:30:57.280Z,12.00
2022-07-25T13:33:24.477Z,10.60
2022-07-25T13:35:51.878Z,12.00
2022-07-25T13:38:19.552Z,14.00
2022-07-25T13:40:47.857Z,13.40
2022-07-25T13:44:06.469Z,14.80
2022-07-25T13:46:36.177Z,10.60
2022-07-25T13:49:07.271Z,11.20
2022-07-25T13:51:34.557Z,12.20
2022-07-25T13:54:03.019Z,9.80
2022-07-25T13:56:31.797Z,11.60
2022-07-25T13:59:02.318Z,13.80
2022-07-25T14:01:29.436Z,14.00
2022-07-25T14:03:56.957Z,11.40
2022-07-25T14:06:23.963Z,12.20
2022-07-25T14:08:50.968Z,10.40
2022-07-25T14:11:17.941Z,11.00
2022-07-25T14:13:45.503Z,11.20
2022-07-25T14:16:14.250Z,16.80
2022-07-25T14:18:41.573Z,13.20
2022-07-25T14:21:08.416Z,14.20
2022-07-25T14:23:35.461Z,13.00
2022-07-25T14:26:02.286Z,14.20
2022-07-25T14:28:30.163Z,10.40
2022-07-25T14:30:57.042Z,13.60
2022-07-25T14:33:25.390Z,13.20
2022-07-25T14:35:52.218Z,10.00
2022-07-25T14:38:19.193Z,8.00
2022-07-25T14:40:46.387Z,14.40
2022-07-25T14:43:13.219Z,13.60
2022-07-25T14:45:41.428Z,10.60
2022-07-25T14:48:08.395Z,12.80
2022-07-25T14:50:36.823Z,12.20
2022-07-25T14:53:04.046Z,15.20
2022-07-25T14:55:30.971Z,16.20
2022-07-25T14:57:58.036Z,12.60
2022-07-25T15:00:29.469Z,15.20
2022-07-25T15:02:57.407Z,13.40
2022-07-25T15:05:24.452Z,13.80
2022-07-25T15:07:52.957Z,15.80
2022-07-25T15:10:20.847Z,15.20
2022-07-25T15:12:51.485Z,13.80
2022-07-25T15:15:25.054Z,15.00
2022-07-25T15:17:52.148Z,16.80
2022-07-25T15:20:19.474Z,14.20
2022-07-25T15:22:46.300Z,14.00
2022-07-25T15:25:57.978Z,14.40
2022-07-25T15:28:01.682Z,14.20
2022-07-25T15:30:29.522Z,13.00
2022-07-25T15:32:59.854Z,12.80
2022-07-25T15:35:27.812Z,12.80
2022-07-25T15:37:54.879Z,13.00
2022-07-25T15:40:23.251Z,12.60
2022-07-25T15:42:50.202Z,16.60
2022-07-25T15:45:32.507Z,16.20
2022-07-25T15:48:00.827Z,13.20
2022-07-25T15:50:27.684Z,19.00
2022-07-25T15:52:54.979Z,13.00
2022-07-25T15:55:23.259Z,16.20
2022-07-25T15:57:51.746Z,17.00
2022-07-25T16:00:19.595Z,13.00
2022-07-25T16:02:46.576Z,16.00
2022-07-25T16:05:14.100Z,16.60
2022-07-25T16:07:41.179Z,14.40
2022-07-25T16:10:09.684Z,14.20
2022-07-25T16:12:39.363Z,11.60
2022-07-25T16:15:08.245Z,13.20
2022-07-25T16:17:37.229Z,11.00
2022-07-25T16:20:05.418Z,14.00
2022-07-25T16:22:32.886Z,10.80
2022-07-25T16:24:59.899Z,13.00
2022-07-25T16:27:27.471Z,10.20
2022-07-25T16:29:56.554Z,7.80
2022-07-25T16:32:23.508Z,11.40
2022-07-25T16:34:50.568Z,13.60
2022-07-25T16:37:17.528Z,13.00
2022-07-25T16:39:44.372Z,11.00
2022-07-25T16:42:11.815Z,11.80
2022-07-25T16:44:38.676Z,12.00
2022-07-25T16:47:08.114Z,9.80
2022-07-25T16:49:35.134Z,9.00
2022-07-25T16:52:02.031Z,11.20
2022-07-25T16:54:29.664Z,11.20
2022-07-25T16:56:59.638Z,11.60
2022-07-25T16:59:27.518Z,11.00
2022-07-25T17:01:54.371Z,12.80
2022-07-25T17:04:22.793Z,9.60
2022-07-25T17:06:49.836Z,10.80
2022-07-25T17:09:16.852Z,11.80
2022-07-25T17:11:43.693Z,11.20
2022-07-25T17:14:10.924Z,12.40
2022-07-25T17:16:39.373Z,11.60
2022-07-25T17:19:06.611Z,10.00
2022-07-25T17:21:34.999Z,16.00
2022-07-25T17:24:01.982Z,11.80
2022-07-25T17:26:29.451Z,10.40
2022-07-25T17:28:56.423Z,12.80
2022-07-25T17:31:23.328Z,10.20
2022-07-25T17:33:50.547Z,10.60
2022-07-25T17:36:17.435Z,10.20
2022-07-25T17:38:46.175Z,11.80
2022-07-25T17:41:13.037Z,11.00
2022-07-25T17:43:40.012Z,9.20
2022-07-25T17:46:06.969Z,10.80
2022-07-25T17:48:33.921Z,11.00
2022-07-25T17:51:00.795Z,11.60
2022-07-25T17:53:27.689Z,10.20
2022-07-25T17:55:56.406Z,9.20
2022-07-25T17:58:23.678Z,10.40
2022-07-25T18:00:50.543Z,7.00
2022-07-25T18:03:17.634Z,9.40
2022-07-25T18:05:44.562Z,7.40
2022-07-25T18:08:11.694Z,9.20
2022-07-25T18:10:38.778Z,8.20
2022-07-25T18:13:07.265Z,10.00
2022-07-25T18:15:34.745Z,8.60
2022-07-25T18:18:02.100Z,7.40
2022-07-25T18:20:29.067Z,8.60
2022-07-25T18:22:56.002Z,8.60
2022-07-25T18:25:23.051Z,7.60
2022-07-25T18:27:50.167Z,7.00
2022-07-25T18:30:18.423Z,10.20
2022-07-25T18:32:45.234Z,6.00
2022-07-25T18:35:13.701Z,7.00
2022-07-25T18:37:41.079Z,11.00
2022-07-25T18:40:10.088Z,6.00
2022-07-25T18:42:37.648Z,7.00
2022-07-25T18:45:06.355Z,6.80
2022-07-25T18:47:35.143Z,6.40
2022-07-25T18:50:03.468Z,6.40
2022-07-25T18:52:30.563Z,7.20
2022-07-25T18:54:57.653Z,5.80
2022-07-25T18:57:24.636Z,8.00
2022-07-25T18:59:51.595Z,7.00
2022-07-25T19:02:18.663Z,5.00
2022-07-25T19:04:47.194Z,6.60
2022-07-25T19:07:14.439Z,4.40
2022-07-25T19:09:41.268Z,5.80
2022-07-25T19:12:09.228Z,5.20
2022-07-25T19:14:36.122Z,6.40
2022-07-25T19:17:04.268Z,3.40
2022-07-25T19:19:31.313Z,6.00
2022-07-25T19:21:59.539Z,5.80
2022-07-25T19:24:26.335Z,3.80
2022-07-25T19:26:53.308Z,4.60
2022-07-25T19:29:20.902Z,2.60
2022-07-25T19:31:47.746Z,5.20
2022-07-25T19:34:15.128Z,4.00
2022-07-25T19:36:42.074Z,5.00
2022-07-25T19:39:10.413Z,5.80
2022-07-25T19:41:37.361Z,4.00
2022-07-25T19:44:05.433Z,3.60
2022-07-25T19:46:33.281Z,4.80
2022-07-25T19:49:01.686Z,4.80
2022-07-25T19:51:28.635Z,5.20
2022-07-25T19:53:55.677Z,6.00
2022-07-25T19:56:28.672Z,3.80
2022-07-25T19:58:55.753Z,4.00
2022-07-25T20:01:22.870Z,4.00
2022-07-25T20:03:50.181Z,3.20
2022-07-25T20:06:17.988Z,4.00
2022-07-25T20:08:44.840Z,4.00
2022-07-25T20:11:12.542Z,4.60
2022-07-25T20:13:41.235Z,3.00
2022-07-25T20:16:08.686Z,6.00
2022-07-25T20:18:36.357Z,3.20
2022-07-25T20:21:04.404Z,1.00
2022-07-25T20:23:32.077Z,4.80
2022-07-25T20:25:59.385Z,3.00
2022-07-25T20:28:26.705Z,2.40
2022-07-25T20:30:56.082Z,4.00
2022-07-25T20:33:24.132Z,3.00
2022-07-25T20:35:51.383Z,3.00
2022-07-25T20:38:18.635Z,3.00
2022-07-25T20:40:49.657Z,4.00
2022-07-25T20:43:17.336Z,3.40
2022-07-25T20:45:44.910Z,3.00
2022-07-25T20:48:14.449Z,3.00
2022-07-25T20:50:42.397Z,3.40
2022-07-25T20:53:10.005Z,3.00
2022-07-25T20:55:39.955Z,1.00
2022-07-25T20:58:07.142Z,4.00
2022-07-25T21:00:34.626Z,3.40
2022-07-25T21:03:02.382Z,4.60
2022-07-25T21:05:37.831Z,2.40
2022-07-25T21:08:09.543Z,4.20
2022-07-25T21:10:37.377Z,4.60
2022-07-25T21:13:10.523Z,3.00
2022-07-25T21:15:46.210Z,3.00
2022-07-25T21:18:18.332Z,4.00
2022-07-25T21:20:49.955Z,3.00
2022-07-25T21:23:19.854Z,3.80
2022-07-25T21:25:47.067Z,3.60
2022-07-25T21:28:14.039Z,3.20
2022-07-25T21:30:42.297Z,3.80
2022-07-25T21:33:14.279Z,2.00
2022-07-25T21:35:49.320Z,2.80
2022-07-25T21:38:27.455Z,4.00
2022-07-25T21:40:55.766Z,2.20
2022-07-25T21:43:22.634Z,3.00
2022-07-25T21:45:50.245Z,2.00
2022-07-25T21:48:22.010Z,2.60
2022-07-25T21:50:50.448Z,6.20
2022-07-25T21:53:17.987Z,2.80
2022-07-25T21:55:46.557Z,3.80
2022-07-25T21:58:13.872Z,1.00
2022-07-25T22:00:45.295Z,1.40
2022-07-25T22:03:12.904Z,2.00
2022-07-25T22:05:39.769Z,2.40
2022-07-25T22:08:06.968Z,3.40
2022-07-25T22:10:36.920Z,2.80
2022-07-25T22:13:05.333Z,2.00
2022-07-25T22:15:32.565Z,1.40
2022-07-25T22:17:59.479Z,1.00
2022-07-25T22:20:26.700Z,1.00
2022-07-25T22:22:54.065Z,2.80
2022-07-25T22:25:21.024Z,2.60
2022-07-25T22:27:48.212Z,5.00
2022-07-25T22:30:19.974Z,3.00
2022-07-25T22:32:48.028Z,3.20
2022-07-25T22:35:15.034Z,2.20
2022-07-25T22:37:42.524Z,3.00
2022-07-25T22:40:11.006Z,1.40
2022-07-25T22:42:37.931Z,2.00
2022-07-25T22:45:09.485Z,1.80
2022-07-25T22:47:39.618Z,1.80
2022-07-25T22:50:09.642Z,2.80
2022-07-25T22:52:36.717Z,2.60
2022-07-25T22:55:04.516Z,2.00
2022-07-25T22:57:37.256Z,2.80
2022-07-25T23:00:08.532Z,2.00
2022-07-25T23:02:37.017Z,2.80
2022-07-25T23:05:05.277Z,2.00
2022-07-25T23:07:32.635Z,2.20
2022-07-25T23:10:01.389Z,2.00
2022-07-25T23:12:28.382Z,3.60
2022-07-25T23:14:55.393Z,1.60
2022-07-25T23:17:22.379Z,4.00
2022-07-25T23:19:54.996Z,3.00
2022-07-25T23:22:52.382Z,3.00
2022-07-25T23:25:29.019Z,4.00
2022-07-25T23:27:56.074Z,5.80
2022-07-25T23:30:23.282Z,5.40
2022-07-25T23:32:50.458Z,2.60
2022-07-25T23:35:43.920Z,3.00
2022-07-25T23:38:20.679Z,3.00
2022-07-25T23:40:47.711Z,2.80
2022-07-25T23:43:15.177Z,3.40
2022-07-25T23:45:57.948Z,3.00
2022-07-25T23:48:24.950Z,2.00
2022-07-25T23:50:53.366Z,2.40
2022-07-25T23:53:20.322Z,5.00
2022-07-25T23:55:57.094Z,3.60
2022-07-25T23:58:24.361Z,1.00
